Time;durP1;ratioP1;P1;durP2;ratioP2;P2;SDS_P1;SDS_P2;PMS_P1;PMS_P2;Temp;Humidity;BMP_temperature;BMP_pressure;BME280_temperature;BME280_humidity;BME280_pressure;Samples;Min_cycle;Max_cycle;Signal;HPM_P1;HPM_P2
2023/12/28 14:22:23;;;;;;;23.33;9.60;;;9.30;99.90;;;;;;4954018;27;4200480;-61
2023/12/28 14:24:49;;;;;;;20.42;10.02;;;9.10;99.90;;;;;;5079814;28;20029;-56
2023/12/28 14:27:15;;;;;;;21.05;10.55;;;9.10;99.90;;;;;;5081905;28;20032;-60
2023/12/28 14:29:41;;;;;;;21.83;10.60;;;9.00;99.90;;;;;;5069586;28;20021;-57
2023/12/28 14:32:08;;;;;;;19.58;9.93;;;9.00;99.90;;;;;;5064592;28;20145;-56
2023/12/28 14:34:34;;;;;;;23.45;10.77;;;9.00;99.90;;;;;;5072571;28;20082;-56
2023/12/28 14:37:00;;;;;;;23.10;11.70;;;8.90;99.90;;;;;;5074913;28;20029;-57
2023/12/28 14:39:25;;;;;;;22.67;11.93;;;8.90;99.90;;;;;;5073571;28;20024;-58
2023/12/28 14:41:51;;;;;;;26.63;12.93;;;8.90;99.90;;;;;;5075490;28;20659;-58
2023/12/28 14:44:17;;;;;;;25.70;12.70;;;8.90;99.90;;;;;;5076005;28;20035;-55
2023/12/28 14:46:42;;;;;;;22.15;11.05;;;8.90;99.90;;;;;;5074763;28;20067;-55
2023/12/28 14:49:08;;;;;;;24.67;11.43;;;8.80;99.90;;;;;;5082686;28;20092;-59
2023/12/28 14:51:33;;;;;;;25.98;13.13;;;8.80;99.90;;;;;;5074447;28;20545;-59
2023/12/28 14:53:59;;;;;;;28.73;13.70;;;8.80;99.90;;;;;;5071790;28;20024;-58
2023/12/28 14:56:25;;;;;;;23.58;12.70;;;8.80;99.90;;;;;;5068271;28;20024;-56
2023/12/28 14:58:50;;;;;;;31.85;14.38;;;8.80;99.90;;;;;;5063154;28;20021;-56
2023/12/28 15:01:20;;;;;;;33.08;14.57;;;8.80;99.90;;;;;;5063299;28;20174;-57
2023/12/28 15:03:45;;;;;;;32.95;15.18;;;8.80;99.90;;;;;;5063810;28;20040;-57
2023/12/28 15:06:11;;;;;;;35.53;15.85;;;8.80;99.90;;;;;;5069480;28;20035;-61
2023/12/28 15:08:37;;;;;;;39.28;17.50;;;8.70;99.90;;;;;;5076200;28;20532;-58
2023/12/28 15:11:04;;;;;;;33.83;16.65;;;8.70;99.90;;;;;;5063891;28;20032;-55
2023/12/28 15:13:30;;;;;;;40.30;18.77;;;8.70;99.90;;;;;;5065517;28;20373;-58
2023/12/28 15:15:56;;;;;;;43.22;18.42;;;8.70;99.90;;;;;;5065815;28;20024;-56
2023/12/28 15:18:21;;;;;;;36.88;17.70;;;8.70;99.90;;;;;;5068823;28;20028;-57
2023/12/28 15:20:48;;;;;;;36.60;15.63;;;8.80;99.90;;;;;;5069053;28;20059;-55
2023/12/28 15:23:19;;;;;;;37.37;15.47;;;8.70;99.90;;;;;;5071787;28;20020;-54
2023/12/28 15:25:45;;;;;;;37.58;15.27;;;8.70;99.90;;;;;;5071341;28;20059;-58
2023/12/28 15:28:10;;;;;;;31.42;15.07;;;8.70;99.90;;;;;;5071658;28;20545;-57
2023/12/28 15:30:36;;;;;;;33.97;14.23;;;8.70;99.90;;;;;;5072354;28;20502;-55
2023/12/28 15:33:02;;;;;;;40.70;17.77;;;8.60;99.90;;;;;;5060905;28;20029;-57
2023/12/28 15:35:28;;;;;;;54.35;21.85;;;8.70;99.90;;;;;;5063097;28;20064;-56
2023/12/28 15:37:55;;;;;;;60.88;26.75;;;8.60;99.90;;;;;;5038809;28;20040;-57
2023/12/28 15:40:21;;;;;;;72.22;28.27;;;8.60;99.90;;;;;;5051168;28;20037;-58
2023/12/28 15:42:46;;;;;;;62.90;27.27;;;8.50;99.90;;;;;;5068443;28;20200;-57
2023/12/28 15:45:12;;;;;;;60.88;23.27;;;8.40;99.90;;;;;;5069032;28;20147;-57
2023/12/28 15:47:38;;;;;;;45.33;20.50;;;8.40;99.90;;;;;;5069988;28;20028;-56
2023/12/28 15:50:04;;;;;;;30.27;14.80;;;8.40;99.90;;;;;;5070106;28;20024;-55
2023/12/28 15:52:30;;;;;;;23.80;13.40;;;8.40;99.90;;;;;;5068774;28;20024;-56
2023/12/28 15:54:56;;;;;;;26.13;13.15;;;8.50;99.90;;;;;;5068649;28;20055;-55
2023/12/28 15:57:23;;;;;;;29.65;14.02;;;8.40;99.90;;;;;;5068282;28;20021;-56
2023/12/28 15:59:49;;;;;;;26.67;13.57;;;8.50;99.90;;;;;;5068564;28;20021;-56
2023/12/28 16:02:14;;;;;;;26.35;12.77;;;8.40;99.90;;;;;;5068595;28;20127;-56
2023/12/28 16:04:40;;;;;;;35.00;15.45;;;8.50;99.90;;;;;;5069281;28;20090;-57
2023/12/28 16:07:05;;;;;;;31.63;15.82;;;8.50;99.90;;;;;;5067896;28;20091;-57
2023/12/28 16:09:32;;;;;;;31.85;14.00;;;8.50;99.90;;;;;;5047324;28;20040;-56
2023/12/28 16:11:58;;;;;;;29.38;15.63;;;8.50;99.90;;;;;;5066540;28;20480;-55
2023/12/28 16:14:24;;;;;;;27.30;14.48;;;8.60;99.90;;;;;;5066706;28;20032;-56
2023/12/28 16:16:50;;;;;;;31.90;15.15;;;8.50;99.90;;;;;;5066593;28;20398;-55
2023/12/28 16:19:16;;;;;;;33.88;15.68;;;8.50;99.90;;;;;;5067532;28;20020;-54
2023/12/28 16:21:42;;;;;;;33.17;15.93;;;8.40;99.90;;;;;;5067724;28;20110;-56
2023/12/28 16:24:08;;;;;;;29.65;14.50;;;8.40;99.90;;;;;;5067822;28;20028;-58
2023/12/28 16:26:36;;;;;;;30.30;14.68;;;8.30;99.90;;;;;;5049594;28;20527;-55
2023/12/28 16:29:02;;;;;;;26.38;14.45;;;8.30;99.90;;;;;;5049531;28;20024;-58
2023/12/28 16:31:29;;;;;;;25.20;13.98;;;8.20;99.90;;;;;;5068763;28;20416;-58
2023/12/28 16:33:54;;;;;;;32.20;14.03;;;8.20;99.90;;;;;;5068590;28;20031;-55
2023/12/28 16:36:20;;;;;;;30.00;14.52;;;8.20;99.90;;;;;;5069820;28;20973;-56
2023/12/28 16:38:46;;;;;;;27.27;14.30;;;8.20;99.90;;;;;;5069143;28;20025;-57
2023/12/28 16:41:11;;;;;;;32.10;14.65;;;8.10;99.90;;;;;;5064429;28;20558;-57
2023/12/28 16:43:38;;;;;;;28.02;14.70;;;8.10;99.90;;;;;;5051652;28;20029;-55
2023/12/28 16:46:04;;;;;;;29.38;14.75;;;8.10;99.90;;;;;;5049806;28;20692;-53
2023/12/28 16:48:30;;;;;;;33.13;15.35;;;8.20;99.90;;;;;;5049843;28;20427;-56
2023/12/28 16:50:59;;;;;;;32.53;14.25;;;8.20;99.90;;;;;;5062968;28;20043;-56
2023/12/28 16:53:25;;;;;;;29.58;14.38;;;8.20;99.90;;;;;;5048013;28;20155;-56
2023/12/28 16:55:51;;;;;;;28.75;15.00;;;8.20;99.90;;;;;;5067871;28;20119;-56
2023/12/28 16:58:17;;;;;;;26.83;12.32;;;8.20;99.90;;;;;;5068077;28;20054;-56
2023/12/28 17:00:42;;;;;;;31.73;16.55;;;8.20;99.90;;;;;;5064479;28;20461;-55
2023/12/28 17:03:08;;;;;;;31.73;16.77;;;8.10;99.90;;;;;;5064829;28;20024;-55
2023/12/28 17:05:34;;;;;;;38.08;19.35;;;8.00;99.90;;;;;;5066935;28;20020;-55
2023/12/28 17:08:00;;;;;;;38.20;16.55;;;8.00;99.90;;;;;;5058220;28;20036;-56
2023/12/28 17:10:26;;;;;;;36.47;15.00;;;7.90;99.90;;;;;;5067020;28;20096;-56
2023/12/28 17:12:52;;;;;;;32.17;15.40;;;7.90;99.90;;;;;;5066897;28;20020;-54
2023/12/28 17:15:19;;;;;;;38.03;16.77;;;7.90;99.90;;;;;;5066937;28;20557;-56
2023/12/28 17:17:45;;;;;;;45.83;20.67;;;7.90;99.90;;;;;;5066641;28;20037;-56
2023/12/28 17:20:12;;;;;;;43.15;19.20;;;7.80;99.90;;;;;;5061456;28;20147;-56
2023/12/28 17:22:50;;;;;;;41.03;20.83;;;7.70;99.90;;;;;;5046849;28;20049;-57
2023/12/28 17:25:21;;;;;;;;;;;7.60;99.90;;;;;;5040126;28;20530;-55
2023/12/28 17:27:54;;;;;;;44.53;21.63;;;7.60;99.90;;;;;;5046734;28;20008;-57
2023/12/28 17:30:24;;;;;;;51.13;22.92;;;7.60;99.90;;;;;;5046758;28;20032;-55
2023/12/28 17:32:54;;;;;;;47.22;21.48;;;7.60;99.90;;;;;;5049584;28;20029;-56
2023/12/28 17:35:20;;;;;;;43.28;20.10;;;7.40;99.90;;;;;;5057655;28;20025;-55
2023/12/28 17:37:46;;;;;;;44.15;21.05;;;7.20;99.90;;;;;;5048063;28;20024;-56
2023/12/28 17:40:12;;;;;;;40.92;19.25;;;7.20;99.90;;;;;;5028743;28;20032;-54
2023/12/28 17:42:39;;;;;;;40.22;19.02;;;7.20;99.90;;;;;;5046826;28;20471;-55
2023/12/28 17:45:11;;;;;;;35.95;18.40;;;7.20;99.90;;;;;;5046518;28;20063;-56
2023/12/28 17:48:03;;;;;;;41.22;20.27;;;7.20;99.90;;;;;;5048271;28;20056;-55
2023/12/28 17:50:29;;;;;;;44.05;21.80;;;7.10;99.90;;;;;;5067004;28;20020;-56
2023/12/28 17:52:55;;;;;;;45.13;21.75;;;7.00;99.90;;;;;;5048357;28;20029;-56
2023/12/28 17:55:21;;;;;;;39.63;21.52;;;7.00;99.90;;;;;;5065989;28;20029;-57
2023/12/28 17:57:46;;;;;;;42.47;21.65;;;7.00;99.90;;;;;;5066629;28;20062;-57
2023/12/28 18:00:12;;;;;;;42.47;21.70;;;6.90;99.90;;;;;;5066675;28;20035;-55
2023/12/28 18:02:38;;;;;;;47.92;24.67;;;6.90;99.90;;;;;;5065706;28;20031;-56
2023/12/28 18:05:05;;;;;;;55.53;24.33;;;6.90;99.90;;;;;;5066134;28;20036;-56
2023/12/28 18:07:30;;;;;;;50.53;24.88;;;7.00;99.90;;;;;;5066539;28;20483;-57
2023/12/28 18:09:56;;;;;;;49.95;23.55;;;6.90;99.90;;;;;;5065907;28;20094;-55
2023/12/28 18:12:22;;;;;;;45.50;23.00;;;6.90;99.90;;;;;;5056460;28;20609;-57
2023/12/28 18:14:49;;;;;;;53.50;23.83;;;6.80;99.90;;;;;;5028066;28;20039;-55
2023/12/28 18:17:15;;;;;;;54.58;27.48;;;6.80;99.90;;;;;;5045616;28;20060;-56
2023/12/28 18:19:40;;;;;;;53.17;26.98;;;6.90;99.90;;;;;;5045935;28;20068;-57
2023/12/28 18:22:06;;;;;;;50.92;27.00;;;6.90;99.90;;;;;;5044380;28;20401;-57
2023/12/28 18:24:32;;;;;;;52.78;29.08;;;6.90;99.90;;;;;;5044728;28;20029;-56
2023/12/28 18:26:57;;;;;;;54.10;29.17;;;7.00;99.90;;;;;;5044780;28;20461;-56
2023/12/28 18:29:23;;;;;;;50.28;26.70;;;7.00;99.90;;;;;;5044990;28;20024;-56
2023/12/28 18:31:48;;;;;;;56.33;27.70;;;7.00;99.90;;;;;;5044723;28;20426;-55
2023/12/28 18:34:14;;;;;;;55.72;27.60;;;7.10;99.90;;;;;;5044547;28;20032;-56
2023/12/28 18:36:40;;;;;;;51.50;24.80;;;7.10;99.90;;;;;;5044747;28;20057;-54
2023/12/28 18:39:07;;;;;;;48.45;20.35;;;7.10;99.90;;;;;;5046109;28;20059;-56
2023/12/28 18:41:33;;;;;;;39.00;18.77;;;7.20;99.90;;;;;;5047700;28;20469;-55
2023/12/28 18:43:59;;;;;;;28.73;16.42;;;7.30;99.90;;;;;;5065959;28;20068;-57
2023/12/28 18:46:24;;;;;;;29.55;15.75;;;7.30;99.90;;;;;;5066097;28;20030;-56
2023/12/28 18:48:50;;;;;;;35.78;17.08;;;7.40;99.90;;;;;;5065926;28;20031;-55
2023/12/28 18:51:16;;;;;;;32.30;15.70;;;7.50;99.90;;;;;;5065462;28;20032;-55
2023/12/28 18:53:43;;;;;;;29.25;16.08;;;7.50;99.90;;;;;;5065565;28;20024;-61
2023/12/28 18:56:09;;;;;;;30.63;15.25;;;7.50;99.90;;;;;;5065611;28;20092;-55
2023/12/28 18:58:34;;;;;;;28.13;16.17;;;7.60;99.90;;;;;;5047461;28;20086;-54
2023/12/28 19:01:00;;;;;;;29.58;14.85;;;7.70;99.90;;;;;;5064423;28;20040;-56
2023/12/28 19:03:29;;;;;;;31.13;15.57;;;7.70;99.90;;;;;;5065810;28;20113;-56
2023/12/28 19:05:54;;;;;;;31.90;15.70;;;7.70;99.90;;;;;;5065715;28;20086;-56
2023/12/28 19:08:20;;;;;;;29.45;15.32;;;7.80;99.90;;;;;;5067986;28;20033;-55
2023/12/28 19:10:46;;;;;;;29.23;14.48;;;7.70;99.90;;;;;;5068842;28;20612;-56
2023/12/28 19:13:12;;;;;;;31.67;15.73;;;7.80;99.90;;;;;;5050969;28;20123;-56
2023/12/28 19:15:38;;;;;;;31.30;15.73;;;7.80;99.90;;;;;;5068864;28;20157;-56
2023/12/28 19:18:04;;;;;;;30.15;16.23;;;7.90;99.90;;;;;;5071661;28;20060;-57
2023/12/28 19:20:30;;;;;;;32.58;15.50;;;7.80;99.90;;;;;;5073438;28;20096;-55
2023/12/28 19:22:55;;;;;;;29.48;14.98;;;7.90;99.90;;;;;;5072631;28;20472;-56
2023/12/28 19:25:21;;;;;;;28.63;15.82;;;7.80;99.90;;;;;;5069075;28;20043;-56
2023/12/28 19:27:49;;;;;;;37.67;17.05;;;7.80;99.90;;;;;;5069160;28;20108;-55
2023/12/28 19:30:15;;;;;;;38.35;18.35;;;7.80;99.90;;;;;;5050812;28;20079;-56
2023/12/28 19:32:40;;;;;;;36.03;18.60;;;7.80;99.90;;;;;;5069443;28;20491;-56
2023/12/28 19:35:09;;;;;;;28.75;14.80;;;7.90;99.90;;;;;;5075594;28;20024;-54
2023/12/28 19:37:35;;;;;;;25.02;13.55;;;7.90;99.90;;;;;;5075485;28;20033;-61
2023/12/28 19:40:01;;;;;;;26.20;13.68;;;7.90;99.90;;;;;;5075719;28;20687;-56
2023/12/28 19:42:26;;;;;;;24.77;13.27;;;8.00;99.90;;;;;;5072724;28;20079;-55
2023/12/28 19:44:52;;;;;;;22.50;13.23;;;8.00;99.90;;;;;;5069884;28;20135;-54
2023/12/28 19:47:17;;;;;;;25.40;13.23;;;8.10;99.90;;;;;;5069222;28;20029;-57
2023/12/28 19:49:43;;;;;;;28.77;14.38;;;8.00;99.90;;;;;;5069146;28;20162;-58
2023/12/28 19:52:09;;;;;;;30.35;14.63;;;8.10;99.90;;;;;;5069218;28;20590;-56
2023/12/28 19:54:36;;;;;;;26.98;13.88;;;8.10;99.90;;;;;;5069671;28;20303;-55
2023/12/28 19:57:02;;;;;;;24.15;13.07;;;8.10;99.90;;;;;;5069889;28;20032;-56
2023/12/28 19:59:27;;;;;;;25.95;13.85;;;8.00;99.90;;;;;;5068654;28;20020;-57
2023/12/28 20:01:55;;;;;;;23.70;12.85;;;8.10;99.90;;;;;;5076006;28;20036;-57
2023/12/28 20:04:23;;;;;;;28.77;13.55;;;8.10;99.90;;;;;;5074850;28;20107;-59
2023/12/28 20:06:49;;;;;;;25.70;15.15;;;8.10;99.90;;;;;;5069211;28;20024;-58
2023/12/28 20:09:15;;;;;;;29.57;15.47;;;8.10;99.90;;;;;;5050903;28;20028;-57
2023/12/28 20:11:41;;;;;;;29.88;15.25;;;8.00;99.90;;;;;;5068586;28;20032;-55
2023/12/28 20:14:07;;;;;;;27.30;15.68;;;8.00;99.90;;;;;;5068785;28;20435;-56
2023/12/28 20:16:34;;;;;;;35.13;16.10;;;8.00;99.90;;;;;;5066688;28;20149;-56
2023/12/28 20:19:00;;;;;;;33.97;16.80;;;8.00;99.90;;;;;;5057579;28;20036;-57
2023/12/28 20:21:26;;;;;;;30.85;15.15;;;8.00;99.90;;;;;;5049080;28;20056;-57
2023/12/28 20:23:51;;;;;;;29.33;14.15;;;7.90;99.90;;;;;;5049671;28;20032;-56
2023/12/28 20:26:17;;;;;;;28.08;15.32;;;7.90;99.90;;;;;;5067192;28;20118;-56
2023/12/28 20:28:43;;;;;;;29.60;14.98;;;7.90;99.90;;;;;;5067646;28;20062;-56
2023/12/28 20:31:08;;;;;;;28.10;14.05;;;7.90;99.90;;;;;;5067950;28;20437;-57
2023/12/28 20:33:34;;;;;;;26.58;13.20;;;7.90;99.90;;;;;;5067304;28;20433;-56
2023/12/28 20:36:00;;;;;;;25.98;12.95;;;7.90;99.90;;;;;;5067439;28;20025;-58
2023/12/28 20:38:27;;;;;;;22.58;13.38;;;7.90;99.90;;;;;;5067675;28;20483;-55
2023/12/28 20:40:53;;;;;;;26.23;15.25;;;7.90;99.90;;;;;;5067918;28;20134;-55
2023/12/28 20:43:19;;;;;;;27.08;15.07;;;8.00;99.90;;;;;;5049901;28;20128;-56
2023/12/28 20:45:44;;;;;;;28.02;14.40;;;8.00;99.90;;;;;;5067607;28;20586;-55
2023/12/28 20:48:11;;;;;;;32.20;14.32;;;8.00;99.90;;;;;;5062930;28;20110;-57
2023/12/28 20:50:37;;;;;;;29.38;14.50;;;8.00;99.90;;;;;;5036441;28;20033;-55
2023/12/28 20:53:03;;;;;;;27.90;14.30;;;8.00;99.90;;;;;;5055748;28;20032;-56
2023/12/28 20:55:29;;;;;;;29.15;15.35;;;8.00;99.90;;;;;;5057708;28;20024;-57
2023/12/28 20:57:54;;;;;;;35.25;17.50;;;8.00;99.90;;;;;;5056566;28;20017;-59
2023/12/28 21:00:20;;;;;;;47.08;20.55;;;8.00;99.90;;;;;;5055661;28;20112;-57
2023/12/28 21:02:46;;;;;;;40.58;18.95;;;8.00;99.90;;;;;;5057816;28;20028;-56
2023/12/28 21:05:12;;;;;;;35.22;16.70;;;8.00;99.90;;;;;;5056141;28;20127;-55
2023/12/28 21:07:38;;;;;;;35.20;16.05;;;8.00;99.90;;;;;;5055960;28;20538;-57
2023/12/28 21:10:04;;;;;;;29.30;15.07;;;8.00;99.90;;;;;;5057379;28;20029;-57
2023/12/28 21:12:36;;;;;;;27.40;14.10;;;8.00;99.90;;;;;;5055853;28;20155;-58
2023/12/28 21:15:05;;;;;;;28.02;14.85;;;8.00;99.90;;;;;;5062553;28;20041;-57
2023/12/28 21:17:32;;;;;;;27.75;14.50;;;8.00;99.90;;;;;;5070092;28;20044;-56
2023/12/28 21:19:57;;;;;;;24.90;13.85;;;7.90;99.90;;;;;;5067725;28;20031;-54
2023/12/28 21:22:23;;;;;;;33.33;15.52;;;8.00;99.90;;;;;;5060588;28;20131;-56
2023/12/28 21:24:49;;;;;;;31.83;16.05;;;7.90;99.90;;;;;;5048399;28;20045;-56
2023/12/28 21:27:15;;;;;;;27.83;15.10;;;7.90;99.90;;;;;;5047133;28;20511;-56
2023/12/28 21:29:41;;;;;;;28.77;13.90;;;7.80;99.90;;;;;;5065626;28;20461;-56
2023/12/28 21:32:07;;;;;;;29.90;15.63;;;7.80;99.90;;;;;;5047984;28;20028;-56
2023/12/28 21:34:33;;;;;;;28.47;14.83;;;7.80;99.90;;;;;;5066352;28;20029;-55
2023/12/28 21:36:58;;;;;;;28.38;15.48;;;7.80;99.90;;;;;;5066846;28;20037;-55
2023/12/28 21:39:24;;;;;;;29.52;15.40;;;7.70;99.90;;;;;;5065703;28;20024;-55
2023/12/28 21:41:51;;;;;;;24.98;14.63;;;7.70;99.90;;;;;;5047201;28;20033;-54
2023/12/28 21:44:19;;;;;;;31.08;15.38;;;7.60;99.90;;;;;;5065997;28;20517;-57
2023/12/28 21:46:45;;;;;;;28.05;15.73;;;7.70;99.90;;;;;;5065911;28;20059;-56
2023/12/28 21:49:11;;;;;;;31.05;15.65;;;7.60;99.90;;;;;;5066739;28;20472;-56
2023/12/28 21:51:37;;;;;;;29.17;15.32;;;7.60;99.90;;;;;;5066444;28;20032;-57
2023/12/28 21:54:03;;;;;;;24.20;14.32;;;7.60;99.90;;;;;;5066128;28;20084;-54
2023/12/28 21:56:28;;;;;;;28.17;15.13;;;7.60;99.90;;;;;;5064905;28;20024;-55
2023/12/28 21:58:54;;;;;;;30.23;15.93;;;7.60;99.90;;;;;;5065355;28;20438;-56
2023/12/28 22:01:19;;;;;;;34.10;16.25;;;7.60;99.90;;;;;;5065007;28;20033;-56
2023/12/28 22:03:45;;;;;;;39.22;19.88;;;7.60;99.90;;;;;;5065376;28;20518;-57
2023/12/28 22:06:11;;;;;;;32.25;16.85;;;7.60;99.90;;;;;;5065638;28;20032;-57
2023/12/28 22:08:37;;;;;;;31.63;16.35;;;7.50;99.90;;;;;;5065700;28;20029;-56
2023/12/28 22:11:03;;;;;;;30.15;15.73;;;7.60;99.90;;;;;;5066344;28;20032;-55
2023/12/28 22:13:29;;;;;;;32.25;18.05;;;7.40;99.90;;;;;;5066231;28;20047;-56
2023/12/28 22:15:58;;;;;;;40.63;18.48;;;7.40;99.90;;;;;;5066345;28;20025;-56
2023/12/28 22:18:25;;;;;;;35.17;18.40;;;7.40;99.90;;;;;;5047591;28;20741;-58
2023/12/28 22:20:51;;;;;;;44.97;19.30;;;7.40;99.90;;;;;;5056133;28;20139;-55
2023/12/28 22:23:16;;;;;;;43.53;19.55;;;7.40;99.90;;;;;;5045350;28;20143;-56
2023/12/28 22:25:42;;;;;;;37.75;20.25;;;7.50;99.90;;;;;;5044297;28;20048;-54
2023/12/28 22:28:08;;;;;;;45.58;21.10;;;7.50;99.90;;;;;;5044426;28;20029;-56
2023/12/28 22:30:35;;;;;;;50.60;21.65;;;7.50;99.90;;;;;;5044435;28;20094;-57
2023/12/28 22:33:01;;;;;;;49.92;22.55;;;7.50;99.90;;;;;;5044917;28;20029;-55
2023/12/28 22:35:26;;;;;;;35.95;17.85;;;7.50;99.90;;;;;;5044810;28;20210;-57
2023/12/28 22:37:53;;;;;;;37.15;19.05;;;7.50;99.90;;;;;;5044929;28;20116;-55
2023/12/28 22:40:19;;;;;;;35.07;17.80;;;7.50;99.90;;;;;;5046127;28;20553;-58
2023/12/28 22:42:44;;;;;;;33.33;17.55;;;7.40;99.90;;;;;;5046087;28;20025;-55
2023/12/28 22:45:10;;;;;;;33.03;16.65;;;7.40;99.90;;;;;;5049680;28;20033;-57
2023/12/28 22:47:36;;;;;;;44.10;22.38;;;7.40;99.90;;;;;;5032296;28;20027;-56
2023/12/28 22:50:02;;;;;;;54.47;27.23;;;7.40;99.90;;;;;;5049672;28;20040;-57
2023/12/28 22:52:27;;;;;;;52.75;26.05;;;7.30;99.90;;;;;;5049200;28;20025;-57
2023/12/28 22:54:53;;;;;;;46.72;23.60;;;7.30;99.90;;;;;;5058835;28;20087;-57
2023/12/28 22:57:19;;;;;;;38.63;19.45;;;7.30;99.90;;;;;;5069504;28;20029;-56
2023/12/28 22:59:45;;;;;;;45.88;21.88;;;7.20;99.90;;;;;;5050759;28;20046;-56
2023/12/28 23:02:12;;;;;;;39.53;20.02;;;7.10;99.90;;;;;;5068827;28;20032;-57
2023/12/28 23:04:39;;;;;;;43.72;20.50;;;7.00;99.90;;;;;;5068717;28;20032;-55
2023/12/28 23:07:04;;;;;;;39.53;19.58;;;7.00;99.90;;;;;;5068951;28;20119;-56
2023/12/28 23:09:30;;;;;;;35.85;18.17;;;6.90;99.90;;;;;;5069078;28;20175;-54
2023/12/28 23:11:57;;;;;;;34.65;18.80;;;6.90;99.90;;;;;;5069155;28;20055;-54
2023/12/28 23:14:23;;;;;;;30.85;17.25;;;6.80;99.90;;;;;;5068864;28;20033;-55
2023/12/28 23:16:49;;;;;;;31.70;17.30;;;6.80;99.90;;;;;;5050710;28;20033;-53
2023/12/28 23:19:14;;;;;;;34.97;17.85;;;6.90;99.90;;;;;;5068915;28;20028;-55
2023/12/28 23:21:40;;;;;;;30.75;17.40;;;6.90;99.90;;;;;;5068835;28;20072;-54
2023/12/28 23:24:06;;;;;;;30.67;16.38;;;6.90;99.90;;;;;;5068981;28;20383;-55
2023/12/28 23:26:32;;;;;;;36.35;16.50;;;7.00;99.90;;;;;;5068524;28;20161;-55
2023/12/28 23:28:57;;;;;;;36.83;17.58;;;7.00;99.90;;;;;;5068854;28;20024;-57
2023/12/28 23:31:23;;;;;;;33.17;17.67;;;7.00;99.90;;;;;;5068651;28;20024;-54
2023/12/28 23:33:50;;;;;;;33.78;17.40;;;7.10;99.90;;;;;;5069084;28;20123;-55
2023/12/28 23:36:16;;;;;;;38.42;19.63;;;7.10;99.90;;;;;;5068942;28;20028;-54
2023/12/28 23:38:42;;;;;;;36.08;19.08;;;7.20;99.90;;;;;;5068810;28;20036;-54
2023/12/28 23:41:07;;;;;;;30.20;16.38;;;7.10;99.90;;;;;;5070320;28;20037;-55
2023/12/28 23:43:33;;;;;;;31.40;17.08;;;7.20;99.90;;;;;;5071203;28;20031;-55
2023/12/28 23:45:59;;;;;;;34.75;17.80;;;7.20;99.90;;;;;;5078109;28;20032;-56
2023/12/28 23:48:24;;;;;;;29.00;15.55;;;7.20;99.90;;;;;;5070324;28;20025;-55
2023/12/28 23:50:50;;;;;;;33.70;16.90;;;7.20;99.90;;;;;;5068406;28;20050;-56
2023/12/28 23:53:15;;;;;;;31.40;15.90;;;7.20;99.90;;;;;;5071444;28;20608;-57
2023/12/28 23:55:41;;;;;;;30.10;16.48;;;7.20;99.90;;;;;;5072602;28;20052;-56
2023/12/28 23:58:07;;;;;;;35.92;16.08;;;7.30;99.90;;;;;;5070778;28;20016;-55
